sensor_id;sensor_type;location;lat;lon;timestamp;P1;durP1;ratioP1;P2;durP2;ratioP2
7255;SDS011;3669;49.200;9.242;2024-02-26T00:01:02;24.85;;;23.58;;
7255;SDS011;3669;49.200;9.242;2024-02-26T00:03:29;27.77;;;26.35;;
7255;SDS011;3669;49.200;9.242;2024-02-26T00:08:51;15.00;;;14.00;;
7255;SDS011;3669;49.200;9.242;2024-02-26T00:11:19;44.13;;;41.97;;
7255;SDS011;3669;49.200;9.242;2024-02-26T00:13:46;30.35;;;28.65;;
7255;SDS011;3669;49.200;9.242;2024-02-26T00:16:13;33.70;;;32.05;;
7255;SDS011;3669;49.200;9.242;2024-02-26T00:18:40;28.30;;;26.80;;
7255;SDS011;3669;49.200;9.242;2024-02-26T00:21:07;6.05;;;5.65;;
7255;SDS011;3669;49.200;9.242;2024-02-26T00:23:34;4.07;;;3.78;;
7255;SDS011;3669;49.200;9.242;2024-02-26T00:26:01;4.00;;;3.70;;
7255;SDS011;3669;49.200;9.242;2024-02-26T00:28:29;4.80;;;4.47;;
7255;SDS011;3669;49.200;9.242;2024-02-26T00:30:56;4.22;;;3.85;;
7255;SDS011;3669;49.200;9.242;2024-02-26T00:33:23;4.05;;;3.75;;
7255;SDS011;3669;49.200;9.242;2024-02-26T00:35:50;4.80;;;4.40;;
7255;SDS011;3669;49.200;9.242;2024-02-26T00:38:18;5.10;;;4.68;;
7255;SDS011;3669;49.200;9.242;2024-02-26T00:40:45;5.30;;;4.80;;
7255;SDS011;3669;49.200;9.242;2024-02-26T00:43:12;5.70;;;5.20;;
7255;SDS011;3669;49.200;9.242;2024-02-26T00:45:39;5.05;;;4.65;;
7255;SDS011;3669;49.200;9.242;2024-02-26T00:48:07;5.78;;;5.28;;
7255;SDS011;3669;49.200;9.242;2024-02-26T00:50:35;5.38;;;4.88;;
7255;SDS011;3669;49.200;9.242;2024-02-26T00:53:02;5.75;;;5.30;;
7255;SDS011;3669;49.200;9.242;2024-02-26T00:55:29;5.47;;;5.07;;
7255;SDS011;3669;49.200;9.242;2024-02-26T00:57:56;5.38;;;4.97;;
7255;SDS011;3669;49.200;9.242;2024-02-26T01:00:23;5.78;;;5.28;;
7255;SDS011;3669;49.200;9.242;2024-02-26T01:02:50;5.57;;;5.18;;
7255;SDS011;3669;49.200;9.242;2024-02-26T01:05:18;5.10;;;4.70;;
7255;SDS011;3669;49.200;9.242;2024-02-26T01:07:45;5.05;;;4.72;;
7255;SDS011;3669;49.200;9.242;2024-02-26T01:11:31;16.33;;;15.43;;
7255;SDS011;3669;49.200;9.242;2024-02-26T01:13:58;6.60;;;6.03;;
7255;SDS011;3669;49.200;9.242;2024-02-26T01:16:25;5.03;;;4.60;;
7255;SDS011;3669;49.200;9.242;2024-02-26T01:18:57;4.65;;;4.32;;
7255;SDS011;3669;49.200;9.242;2024-02-26T01:22:23;31.10;;;29.55;;
7255;SDS011;3669;49.200;9.242;2024-02-26T01:24:50;27.42;;;26.00;;
7255;SDS011;3669;49.200;9.242;2024-02-26T01:27:17;16.17;;;15.23;;
7255;SDS011;3669;49.200;9.242;2024-02-26T01:29:44;6.22;;;5.75;;
7255;SDS011;3669;49.200;9.242;2024-02-26T01:32:11;4.47;;;4.15;;
7255;SDS011;3669;49.200;9.242;2024-02-26T01:34:38;4.40;;;4.10;;
7255;SDS011;3669;49.200;9.242;2024-02-26T01:37:06;4.45;;;4.15;;
7255;SDS011;3669;49.200;9.242;2024-02-26T01:39:33;4.15;;;3.85;;
7255;SDS011;3669;49.200;9.242;2024-02-26T01:42:00;4.95;;;4.55;;
7255;SDS011;3669;49.200;9.242;2024-02-26T01:44:28;4.35;;;4.05;;
7255;SDS011;3669;49.200;9.242;2024-02-26T01:46:55;4.53;;;4.22;;
7255;SDS011;3669;49.200;9.242;2024-02-26T01:49:22;4.40;;;4.10;;
7255;SDS011;3669;49.200;9.242;2024-02-26T01:51:49;4.20;;;3.90;;
7255;SDS011;3669;49.200;9.242;2024-02-26T01:54:23;4.13;;;3.83;;
7255;SDS011;3669;49.200;9.242;2024-02-26T01:57:31;20.67;;;19.60;;
7255;SDS011;3669;49.200;9.242;2024-02-26T02:00:03;9.07;;;8.57;;
7255;SDS011;3669;49.200;9.242;2024-02-26T02:02:31;3.92;;;3.63;;
7255;SDS011;3669;49.200;9.242;2024-02-26T02:04:59;4.00;;;3.80;;
7255;SDS011;3669;49.200;9.242;2024-02-26T02:07:26;3.97;;;3.67;;
7255;SDS011;3669;49.200;9.242;2024-02-26T02:09:53;3.80;;;3.47;;
7255;SDS011;3669;49.200;9.242;2024-02-26T02:12:21;4.03;;;3.72;;
7255;SDS011;3669;49.200;9.242;2024-02-26T02:14:48;3.80;;;3.60;;
7255;SDS011;3669;49.200;9.242;2024-02-26T02:17:15;3.55;;;3.35;;
7255;SDS011;3669;49.200;9.242;2024-02-26T02:19:43;3.97;;;3.78;;
7255;SDS011;3669;49.200;9.242;2024-02-26T02:22:10;3.63;;;3.33;;
7255;SDS011;3669;49.200;9.242;2024-02-26T02:24:38;3.63;;;3.42;;
7255;SDS011;3669;49.200;9.242;2024-02-26T02:27:05;3.95;;;3.65;;
7255;SDS011;3669;49.200;9.242;2024-02-26T02:29:32;4.15;;;3.85;;
7255;SDS011;3669;49.200;9.242;2024-02-26T02:31:59;3.97;;;3.78;;
7255;SDS011;3669;49.200;9.242;2024-02-26T02:34:30;4.10;;;3.80;;
7255;SDS011;3669;49.200;9.242;2024-02-26T02:37:13;3.63;;;3.40;;
7255;SDS011;3669;49.200;9.242;2024-02-26T02:39:40;3.75;;;3.55;;
7255;SDS011;3669;49.200;9.242;2024-02-26T02:42:11;4.75;;;4.45;;
7255;SDS011;3669;49.200;9.242;2024-02-26T02:44:44;3.92;;;3.63;;
7255;SDS011;3669;49.200;9.242;2024-02-26T02:47:13;4.00;;;3.70;;
7255;SDS011;3669;49.200;9.242;2024-02-26T02:50:45;4.28;;;4.03;;
7255;SDS011;3669;49.200;9.242;2024-02-26T02:53:17;4.47;;;4.18;;
7255;SDS011;3669;49.200;9.242;2024-02-26T02:55:44;3.78;;;3.47;;
7255;SDS011;3669;49.200;9.242;2024-02-26T02:58:12;3.33;;;3.13;;
7255;SDS011;3669;49.200;9.242;2024-02-26T03:00:39;3.83;;;3.63;;
7255;SDS011;3669;49.200;9.242;2024-02-26T03:03:06;3.67;;;3.47;;
7255;SDS011;3669;49.200;9.242;2024-02-26T03:05:33;3.47;;;3.28;;
7255;SDS011;3669;49.200;9.242;2024-02-26T03:08:00;3.72;;;3.42;;
7255;SDS011;3669;49.200;9.242;2024-02-26T03:10:27;3.45;;;3.25;;
7255;SDS011;3669;49.200;9.242;2024-02-26T03:12:54;3.75;;;3.55;;
7255;SDS011;3669;49.200;9.242;2024-02-26T03:15:22;3.90;;;3.60;;
7255;SDS011;3669;49.200;9.242;2024-02-26T03:17:50;4.75;;;4.45;;
7255;SDS011;3669;49.200;9.242;2024-02-26T03:20:19;3.50;;;3.30;;
7255;SDS011;3669;49.200;9.242;2024-02-26T03:22:46;3.53;;;3.17;;
7255;SDS011;3669;49.200;9.242;2024-02-26T03:25:13;3.30;;;3.10;;
7255;SDS011;3669;49.200;9.242;2024-02-26T03:27:40;3.45;;;3.25;;
7255;SDS011;3669;49.200;9.242;2024-02-26T03:30:07;3.70;;;3.40;;
7255;SDS011;3669;49.200;9.242;2024-02-26T03:32:35;3.20;;;3.00;;
7255;SDS011;3669;49.200;9.242;2024-02-26T03:35:02;3.45;;;3.22;;
7255;SDS011;3669;49.200;9.242;2024-02-26T03:37:29;3.33;;;3.13;;
7255;SDS011;3669;49.200;9.242;2024-02-26T03:39:56;3.70;;;3.40;;
7255;SDS011;3669;49.200;9.242;2024-02-26T03:42:24;3.80;;;3.50;;
7255;SDS011;3669;49.200;9.242;2024-02-26T03:44:52;3.55;;;3.35;;
7255;SDS011;3669;49.200;9.242;2024-02-26T03:47:19;3.90;;;3.60;;
7255;SDS011;3669;49.200;9.242;2024-02-26T03:49:46;3.95;;;3.72;;
7255;SDS011;3669;49.200;9.242;2024-02-26T03:52:13;4.05;;;3.75;;
7255;SDS011;3669;49.200;9.242;2024-02-26T03:54:40;3.40;;;3.20;;
7255;SDS011;3669;49.200;9.242;2024-02-26T03:57:07;4.72;;;3.42;;
7255;SDS011;3669;49.200;9.242;2024-02-26T04:01:58;3.40;;;3.20;;
7255;SDS011;3669;49.200;9.242;2024-02-26T04:04:27;3.47;;;3.28;;
7255;SDS011;3669;49.200;9.242;2024-02-26T04:09:35;47.88;;;45.58;;
7255;SDS011;3669;49.200;9.242;2024-02-26T04:14:52;42.10;;;40.15;;
7255;SDS011;3669;49.200;9.242;2024-02-26T04:17:20;18.58;;;17.83;;
7255;SDS011;3669;49.200;9.242;2024-02-26T04:19:50;3.95;;;3.65;;
7255;SDS011;3669;49.200;9.242;2024-02-26T04:22:25;3.95;;;3.65;;
7255;SDS011;3669;49.200;9.242;2024-02-26T04:25:07;3.75;;;3.45;;
7255;SDS011;3669;49.200;9.242;2024-02-26T04:28:08;4.78;;;4.38;;
7255;SDS011;3669;49.200;9.242;2024-02-26T04:30:47;3.90;;;3.60;;
7255;SDS011;3669;49.200;9.242;2024-02-26T04:33:19;4.00;;;3.70;;
7255;SDS011;3669;49.200;9.242;2024-02-26T04:36:02;3.58;;;3.28;;
7255;SDS011;3669;49.200;9.242;2024-02-26T04:39:30;19.40;;;18.35;;
7255;SDS011;3669;49.200;9.242;2024-02-26T04:41:59;5.70;;;5.32;;
7255;SDS011;3669;49.200;9.242;2024-02-26T04:44:35;4.60;;;4.30;;
7255;SDS011;3669;49.200;9.242;2024-02-26T04:47:02;4.03;;;3.75;;
7255;SDS011;3669;49.200;9.242;2024-02-26T04:50:59;4.00;;;3.67;;
7255;SDS011;3669;49.200;9.242;2024-02-26T04:53:28;3.78;;;3.58;;
7255;SDS011;3669;49.200;9.242;2024-02-26T04:58:07;3.70;;;3.40;;
7255;SDS011;3669;49.200;9.242;2024-02-26T05:00:36;4.07;;;3.80;;
7255;SDS011;3669;49.200;9.242;2024-02-26T05:03:03;3.90;;;3.70;;
7255;SDS011;3669;49.200;9.242;2024-02-26T05:05:31;3.78;;;3.47;;
7255;SDS011;3669;49.200;9.242;2024-02-26T05:07:58;4.07;;;3.78;;
7255;SDS011;3669;49.200;9.242;2024-02-26T05:10:26;4.03;;;3.72;;
7255;SDS011;3669;49.200;9.242;2024-02-26T05:12:53;3.30;;;3.10;;
7255;SDS011;3669;49.200;9.242;2024-02-26T05:15:20;5.43;;;3.80;;
7255;SDS011;3669;49.200;9.242;2024-02-26T05:17:47;3.17;;;2.95;;
7255;SDS011;3669;49.200;9.242;2024-02-26T05:20:14;3.28;;;3.08;;
7255;SDS011;3669;49.200;9.242;2024-02-26T05:22:42;3.10;;;2.90;;
7255;SDS011;3669;49.200;9.242;2024-02-26T05:25:09;4.43;;;4.13;;
7255;SDS011;3669;49.200;9.242;2024-02-26T05:27:36;4.22;;;3.92;;
7255;SDS011;3669;49.200;9.242;2024-02-26T05:30:04;4.10;;;3.70;;
7255;SDS011;3669;49.200;9.242;2024-02-26T05:32:31;3.75;;;3.50;;
7255;SDS011;3669;49.200;9.242;2024-02-26T05:34:58;3.40;;;3.20;;
7255;SDS011;3669;49.200;9.242;2024-02-26T05:37:26;4.00;;;3.70;;
7255;SDS011;3669;49.200;9.242;2024-02-26T05:39:53;3.40;;;3.20;;
7255;SDS011;3669;49.200;9.242;2024-02-26T05:42:20;3.50;;;3.30;;
7255;SDS011;3669;49.200;9.242;2024-02-26T05:44:47;3.97;;;3.67;;
7255;SDS011;3669;49.200;9.242;2024-02-26T05:47:14;3.45;;;3.25;;
7255;SDS011;3669;49.200;9.242;2024-02-26T05:49:43;3.60;;;3.40;;
7255;SDS011;3669;49.200;9.242;2024-02-26T05:52:10;3.63;;;3.42;;
7255;SDS011;3669;49.200;9.242;2024-02-26T05:54:37;3.92;;;3.72;;
7255;SDS011;3669;49.200;9.242;2024-02-26T05:57:04;3.78;;;3.58;;
7255;SDS011;3669;49.200;9.242;2024-02-26T05:59:32;3.40;;;3.20;;
7255;SDS011;3669;49.200;9.242;2024-02-26T06:01:59;3.83;;;3.50;;
7255;SDS011;3669;49.200;9.242;2024-02-26T06:04:26;3.28;;;3.08;;
7255;SDS011;3669;49.200;9.242;2024-02-26T06:09:11;16.13;;;15.18;;
7255;SDS011;3669;49.200;9.242;2024-02-26T06:11:39;28.70;;;27.33;;
7255;SDS011;3669;49.200;9.242;2024-02-26T06:14:08;38.80;;;36.85;;
7255;SDS011;3669;49.200;9.242;2024-02-26T06:16:35;20.73;;;19.67;;
7255;SDS011;3669;49.200;9.242;2024-02-26T06:19:02;26.88;;;25.55;;
7255;SDS011;3669;49.200;9.242;2024-02-26T06:21:30;20.20;;;19.30;;
7255;SDS011;3669;49.200;9.242;2024-02-26T06:23:56;12.50;;;11.82;;
7255;SDS011;3669;49.200;9.242;2024-02-26T06:26:23;5.13;;;4.85;;
7255;SDS011;3669;49.200;9.242;2024-02-26T06:28:54;7.60;;;7.18;;
7255;SDS011;3669;49.200;9.242;2024-02-26T06:31:22;3.80;;;3.60;;
7255;SDS011;3669;49.200;9.242;2024-02-26T06:33:49;4.22;;;3.97;;
7255;SDS011;3669;49.200;9.242;2024-02-26T06:36:16;3.80;;;3.55;;
7255;SDS011;3669;49.200;9.242;2024-02-26T06:38:43;4.25;;;3.95;;
7255;SDS011;3669;49.200;9.242;2024-02-26T06:41:10;3.60;;;3.33;;
7255;SDS011;3669;49.200;9.242;2024-02-26T06:43:38;3.67;;;3.47;;
7255;SDS011;3669;49.200;9.242;2024-02-26T06:46:05;3.97;;;3.72;;
7255;SDS011;3669;49.200;9.242;2024-02-26T06:48:33;3.90;;;3.60;;
7255;SDS011;3669;49.200;9.242;2024-02-26T06:51:02;3.70;;;3.45;;
7255;SDS011;3669;49.200;9.242;2024-02-26T06:53:30;3.50;;;3.30;;
7255;SDS011;3669;49.200;9.242;2024-02-26T06:55:57;3.47;;;3.28;;
7255;SDS011;3669;49.200;9.242;2024-02-26T06:58:24;3.70;;;3.50;;
7255;SDS011;3669;49.200;9.242;2024-02-26T07:00:51;4.03;;;3.72;;
7255;SDS011;3669;49.200;9.242;2024-02-26T07:03:18;3.83;;;3.53;;
7255;SDS011;3669;49.200;9.242;2024-02-26T07:05:45;3.80;;;3.50;;
7255;SDS011;3669;49.200;9.242;2024-02-26T07:08:12;3.88;;;3.58;;
7255;SDS011;3669;49.200;9.242;2024-02-26T07:10:39;3.72;;;3.53;;
7255;SDS011;3669;49.200;9.242;2024-02-26T07:13:07;3.92;;;3.63;;
7255;SDS011;3669;49.200;9.242;2024-02-26T07:15:34;3.45;;;3.25;;
7255;SDS011;3669;49.200;9.242;2024-02-26T07:18:01;3.40;;;3.20;;
7255;SDS011;3669;49.200;9.242;2024-02-26T07:20:32;3.83;;;3.63;;
7255;SDS011;3669;49.200;9.242;2024-02-26T07:22:59;4.00;;;3.80;;
7255;SDS011;3669;49.200;9.242;2024-02-26T07:25:27;4.07;;;3.83;;
7255;SDS011;3669;49.200;9.242;2024-02-26T07:27:54;3.65;;;3.40;;
7255;SDS011;3669;49.200;9.242;2024-02-26T07:30:21;3.75;;;3.55;;
7255;SDS011;3669;49.200;9.242;2024-02-26T07:32:50;3.80;;;3.60;;
7255;SDS011;3669;49.200;9.242;2024-02-26T07:35:17;3.65;;;3.45;;
7255;SDS011;3669;49.200;9.242;2024-02-26T07:37:47;4.32;;;4.03;;
7255;SDS011;3669;49.200;9.242;2024-02-26T07:40:16;4.13;;;3.83;;
7255;SDS011;3669;49.200;9.242;2024-02-26T07:42:43;3.80;;;3.60;;
7255;SDS011;3669;49.200;9.242;2024-02-26T07:45:10;3.92;;;3.63;;
7255;SDS011;3669;49.200;9.242;2024-02-26T07:47:37;4.28;;;3.97;;
7255;SDS011;3669;49.200;9.242;2024-02-26T07:50:07;4.72;;;4.43;;
7255;SDS011;3669;49.200;9.242;2024-02-26T07:52:34;4.50;;;4.20;;
7255;SDS011;3669;49.200;9.242;2024-02-26T07:55:01;4.53;;;4.18;;
7255;SDS011;3669;49.200;9.242;2024-02-26T07:57:29;4.32;;;4.00;;
7255;SDS011;3669;49.200;9.242;2024-02-26T07:59:57;5.18;;;4.78;;
7255;SDS011;3669;49.200;9.242;2024-02-26T08:02:24;4.68;;;4.28;;
7255;SDS011;3669;49.200;9.242;2024-02-26T08:04:52;4.70;;;4.40;;
7255;SDS011;3669;49.200;9.242;2024-02-26T08:07:19;4.88;;;4.47;;
7255;SDS011;3669;49.200;9.242;2024-02-26T08:09:47;5.05;;;4.68;;
7255;SDS011;3669;49.200;9.242;2024-02-26T08:12:15;12.30;;;11.60;;
7255;SDS011;3669;49.200;9.242;2024-02-26T08:14:42;23.88;;;22.67;;
7255;SDS011;3669;49.200;9.242;2024-02-26T08:17:10;26.08;;;24.77;;
7255;SDS011;3669;49.200;9.242;2024-02-26T08:19:37;33.08;;;31.33;;
7255;SDS011;3669;49.200;9.242;2024-02-26T08:22:04;30.30;;;28.83;;
7255;SDS011;3669;49.200;9.242;2024-02-26T08:24:31;29.63;;;28.00;;
7255;SDS011;3669;49.200;9.242;2024-02-26T08:26:58;15.98;;;15.10;;
7255;SDS011;3669;49.200;9.242;2024-02-26T08:29:25;9.38;;;8.75;;
7255;SDS011;3669;49.200;9.242;2024-02-26T08:31:52;5.13;;;4.63;;
7255;SDS011;3669;49.200;9.242;2024-02-26T08:34:19;5.30;;;4.85;;
7255;SDS011;3669;49.200;9.242;2024-02-26T08:36:46;5.35;;;4.95;;
7255;SDS011;3669;49.200;9.242;2024-02-26T08:39:15;5.63;;;5.22;;
7255;SDS011;3669;49.200;9.242;2024-02-26T08:41:43;5.63;;;5.07;;
7255;SDS011;3669;49.200;9.242;2024-02-26T08:44:10;5.30;;;4.90;;
7255;SDS011;3669;49.200;9.242;2024-02-26T08:46:37;5.10;;;4.70;;
7255;SDS011;3669;49.200;9.242;2024-02-26T08:49:05;5.18;;;4.78;;
7255;SDS011;3669;49.200;9.242;2024-02-26T08:51:32;6.15;;;5.75;;
7255;SDS011;3669;49.200;9.242;2024-02-26T08:53:59;5.13;;;4.80;;
7255;SDS011;3669;49.200;9.242;2024-02-26T08:56:26;4.82;;;4.53;;
7255;SDS011;3669;49.200;9.242;2024-02-26T08:58:53;5.47;;;4.95;;
7255;SDS011;3669;49.200;9.242;2024-02-26T09:01:22;5.43;;;4.95;;
7255;SDS011;3669;49.200;9.242;2024-02-26T09:03:49;5.88;;;5.38;;
7255;SDS011;3669;49.200;9.242;2024-02-26T09:06:16;6.47;;;5.18;;
7255;SDS011;3669;49.200;9.242;2024-02-26T09:08:43;5.70;;;5.20;;
7255;SDS011;3669;49.200;9.242;2024-02-26T09:11:10;5.07;;;4.68;;
7255;SDS011;3669;49.200;9.242;2024-02-26T09:13:37;5.25;;;4.85;;
7255;SDS011;3669;49.200;9.242;2024-02-26T09:16:04;5.25;;;4.85;;
7255;SDS011;3669;49.200;9.242;2024-02-26T09:18:32;4.93;;;4.53;;
7255;SDS011;3669;49.200;9.242;2024-02-26T09:20:59;5.45;;;5.05;;
7255;SDS011;3669;49.200;9.242;2024-02-26T09:23:26;5.22;;;4.72;;
7255;SDS011;3669;49.200;9.242;2024-02-26T09:25:53;5.85;;;5.28;;
7255;SDS011;3669;49.200;9.242;2024-02-26T09:28:20;5.15;;;4.75;;
7255;SDS011;3669;49.200;9.242;2024-02-26T09:30:47;5.32;;;4.95;;
7255;SDS011;3669;49.200;9.242;2024-02-26T09:33:16;5.68;;;5.28;;
7255;SDS011;3669;49.200;9.242;2024-02-26T09:35:43;5.97;;;5.45;;
7255;SDS011;3669;49.200;9.242;2024-02-26T09:38:10;5.60;;;5.07;;
7255;SDS011;3669;49.200;9.242;2024-02-26T09:40:37;5.05;;;4.55;;
7255;SDS011;3669;49.200;9.242;2024-02-26T09:43:04;5.75;;;5.35;;
7255;SDS011;3669;49.200;9.242;2024-02-26T09:45:32;5.88;;;5.38;;
7255;SDS011;3669;49.200;9.242;2024-02-26T09:47:59;5.10;;;4.70;;
7255;SDS011;3669;49.200;9.242;2024-02-26T09:50:29;5.07;;;4.72;;
7255;SDS011;3669;49.200;9.242;2024-02-26T09:52:56;6.38;;;5.88;;
7255;SDS011;3669;49.200;9.242;2024-02-26T09:55:25;5.65;;;5.25;;
7255;SDS011;3669;49.200;9.242;2024-02-26T09:57:52;6.25;;;5.75;;
7255;SDS011;3669;49.200;9.242;2024-02-26T10:00:20;6.47;;;5.97;;
7255;SDS011;3669;49.200;9.242;2024-02-26T10:02:47;6.53;;;6.03;;
7255;SDS011;3669;49.200;9.242;2024-02-26T10:05:16;9.77;;;9.07;;
7255;SDS011;3669;49.200;9.242;2024-02-26T10:07:48;6.38;;;5.88;;
7255;SDS011;3669;49.200;9.242;2024-02-26T10:10:15;8.07;;;7.45;;
7255;SDS011;3669;49.200;9.242;2024-02-26T10:12:42;18.90;;;17.77;;
7255;SDS011;3669;49.200;9.242;2024-02-26T10:15:08;26.08;;;24.55;;
7255;SDS011;3669;49.200;9.242;2024-02-26T10:17:35;35.88;;;33.58;;
7255;SDS011;3669;49.200;9.242;2024-02-26T10:20:17;38.88;;;36.58;;
7255;SDS011;3669;49.200;9.242;2024-02-26T10:22:44;24.02;;;22.63;;
7255;SDS011;3669;49.200;9.242;2024-02-26T10:25:11;38.85;;;36.90;;
7255;SDS011;3669;49.200;9.242;2024-02-26T10:27:40;30.60;;;29.02;;
7255;SDS011;3669;49.200;9.242;2024-02-26T10:30:17;42.92;;;40.33;;
7255;SDS011;3669;49.200;9.242;2024-02-26T10:32:45;39.85;;;37.78;;
7255;SDS011;3669;49.200;9.242;2024-02-26T10:35:19;32.45;;;30.55;;
7255;SDS011;3669;49.200;9.242;2024-02-26T10:37:46;30.55;;;28.70;;
7255;SDS011;3669;49.200;9.242;2024-02-26T10:40:14;32.88;;;30.88;;
7255;SDS011;3669;49.200;9.242;2024-02-26T10:42:42;32.33;;;30.67;;
7255;SDS011;3669;49.200;9.242;2024-02-26T10:45:10;47.80;;;45.40;;
7255;SDS011;3669;49.200;9.242;2024-02-26T10:47:39;28.70;;;27.17;;
7255;SDS011;3669;49.200;9.242;2024-02-26T10:50:07;18.73;;;17.63;;
7255;SDS011;3669;49.200;9.242;2024-02-26T10:52:34;5.97;;;5.47;;
7255;SDS011;3669;49.200;9.242;2024-02-26T10:55:02;6.00;;;5.50;;
7255;SDS011;3669;49.200;9.242;2024-02-26T10:57:33;6.28;;;5.78;;
7255;SDS011;3669;49.200;9.242;2024-02-26T11:00:03;6.45;;;5.85;;
7255;SDS011;3669;49.200;9.242;2024-02-26T11:02:33;5.35;;;4.93;;
7255;SDS011;3669;49.200;9.242;2024-02-26T11:05:04;6.07;;;5.57;;
7255;SDS011;3669;49.200;9.242;2024-02-26T11:07:35;6.10;;;5.50;;
7255;SDS011;3669;49.200;9.242;2024-02-26T11:10:04;5.60;;;5.20;;
7255;SDS011;3669;49.200;9.242;2024-02-26T11:12:32;6.03;;;5.63;;
7255;SDS011;3669;49.200;9.242;2024-02-26T11:15:01;5.80;;;5.30;;
7255;SDS011;3669;49.200;9.242;2024-02-26T11:17:29;5.38;;;4.97;;
7255;SDS011;3669;49.200;9.242;2024-02-26T11:19:58;5.93;;;5.32;;
7255;SDS011;3669;49.200;9.242;2024-02-26T11:22:25;5.90;;;5.40;;
7255;SDS011;3669;49.200;9.242;2024-02-26T11:24:53;5.78;;;5.28;;
7255;SDS011;3669;49.200;9.242;2024-02-26T11:27:21;6.07;;;5.47;;
7255;SDS011;3669;49.200;9.242;2024-02-26T11:29:52;5.45;;;4.95;;
7255;SDS011;3669;49.200;9.242;2024-02-26T11:32:19;6.00;;;5.47;;
7255;SDS011;3669;49.200;9.242;2024-02-26T11:34:46;5.05;;;4.68;;
7255;SDS011;3669;49.200;9.242;2024-02-26T11:37:15;6.05;;;5.55;;
7255;SDS011;3669;49.200;9.242;2024-02-26T11:39:43;4.85;;;4.43;;
7255;SDS011;3669;49.200;9.242;2024-02-26T11:42:15;4.28;;;3.97;;
7255;SDS011;3669;49.200;9.242;2024-02-26T11:44:42;5.13;;;4.65;;
7255;SDS011;3669;49.200;9.242;2024-02-26T11:49:37;4.70;;;4.30;;
7255;SDS011;3669;49.200;9.242;2024-02-26T11:52:06;4.38;;;3.97;;
7255;SDS011;3669;49.200;9.242;2024-02-26T11:54:47;4.43;;;4.13;;
7255;SDS011;3669;49.200;9.242;2024-02-26T11:57:21;5.00;;;4.60;;
7255;SDS011;3669;49.200;9.242;2024-02-26T11:59:48;4.10;;;3.80;;
7255;SDS011;3669;49.200;9.242;2024-02-26T12:02:59;5.88;;;4.40;;
7255;SDS011;3669;49.200;9.242;2024-02-26T12:05:11;4.28;;;3.97;;
7255;SDS011;3669;49.200;9.242;2024-02-26T12:07:48;4.05;;;3.75;;
7255;SDS011;3669;49.200;9.242;2024-02-26T12:10:26;4.60;;;4.20;;
7255;SDS011;3669;49.200;9.242;2024-02-26T12:13:06;4.30;;;4.00;;
7255;SDS011;3669;49.200;9.242;2024-02-26T12:15:41;4.35;;;3.97;;
7255;SDS011;3669;49.200;9.242;2024-02-26T12:18:09;4.43;;;4.03;;
7255;SDS011;3669;49.200;9.242;2024-02-26T12:20:37;4.43;;;4.13;;
7255;SDS011;3669;49.200;9.242;2024-02-26T12:23:04;5.30;;;4.90;;
7255;SDS011;3669;49.200;9.242;2024-02-26T12:25:32;4.53;;;4.13;;
7255;SDS011;3669;49.200;9.242;2024-02-26T12:27:59;4.53;;;4.22;;
7255;SDS011;3669;49.200;9.242;2024-02-26T12:30:26;4.25;;;3.85;;
7255;SDS011;3669;49.200;9.242;2024-02-26T12:32:55;4.88;;;4.47;;
7255;SDS011;3669;49.200;9.242;2024-02-26T12:35:23;13.25;;;12.60;;
7255;SDS011;3669;49.200;9.242;2024-02-26T12:37:50;42.75;;;40.33;;
7255;SDS011;3669;49.200;9.242;2024-02-26T12:40:18;32.63;;;31.13;;
7255;SDS011;3669;49.200;9.242;2024-02-26T12:42:45;26.23;;;24.92;;
7255;SDS011;3669;49.200;9.242;2024-02-26T12:45:12;10.35;;;9.75;;
7255;SDS011;3669;49.200;9.242;2024-02-26T12:47:41;6.15;;;5.70;;
7255;SDS011;3669;49.200;9.242;2024-02-26T12:50:09;4.07;;;3.78;;
7255;SDS011;3669;49.200;9.242;2024-02-26T12:52:39;4.40;;;4.00;;
7255;SDS011;3669;49.200;9.242;2024-02-26T12:55:06;4.00;;;3.70;;
7255;SDS011;3669;49.200;9.242;2024-02-26T12:57:37;3.65;;;3.42;;
7255;SDS011;3669;49.200;9.242;2024-02-26T13:00:04;3.75;;;3.45;;
7255;SDS011;3669;49.200;9.242;2024-02-26T13:02:35;3.33;;;3.13;;
7255;SDS011;3669;49.200;9.242;2024-02-26T13:05:06;3.50;;;3.20;;
7255;SDS011;3669;49.200;9.242;2024-02-26T13:07:34;3.22;;;3.03;;
7255;SDS011;3669;49.200;9.242;2024-02-26T13:10:01;2.83;;;2.63;;
7255;SDS011;3669;49.200;9.242;2024-02-26T13:12:28;3.53;;;3.33;;
7255;SDS011;3669;49.200;9.242;2024-02-26T13:14:59;3.35;;;3.08;;
7255;SDS011;3669;49.200;9.242;2024-02-26T13:17:26;3.83;;;3.53;;
7255;SDS011;3669;49.200;9.242;2024-02-26T13:19:54;3.10;;;2.90;;
7255;SDS011;3669;49.200;9.242;2024-02-26T13:22:21;3.45;;;3.25;;
7255;SDS011;3669;49.200;9.242;2024-02-26T13:24:59;3.35;;;3.15;;
7255;SDS011;3669;49.200;9.242;2024-02-26T13:27:29;3.05;;;2.85;;
7255;SDS011;3669;49.200;9.242;2024-02-26T13:30:09;3.17;;;2.97;;
7255;SDS011;3669;49.200;9.242;2024-02-26T13:32:38;3.03;;;2.83;;
7255;SDS011;3669;49.200;9.242;2024-02-26T13:35:10;2.90;;;2.70;;
7255;SDS011;3669;49.200;9.242;2024-02-26T13:37:38;3.20;;;3.00;;
7255;SDS011;3669;49.200;9.242;2024-02-26T13:40:06;3.38;;;3.17;;
7255;SDS011;3669;49.200;9.242;2024-02-26T13:42:34;3.00;;;2.70;;
7255;SDS011;3669;49.200;9.242;2024-02-26T13:45:02;4.60;;;3.40;;
7255;SDS011;3669;49.200;9.242;2024-02-26T13:47:29;3.05;;;2.85;;
7255;SDS011;3669;49.200;9.242;2024-02-26T13:49:56;3.35;;;3.15;;
7255;SDS011;3669;49.200;9.242;2024-02-26T13:52:23;3.45;;;3.25;;
7255;SDS011;3669;49.200;9.242;2024-02-26T13:54:51;3.47;;;3.28;;
7255;SDS011;3669;49.200;9.242;2024-02-26T13:57:18;3.40;;;3.10;;
7255;SDS011;3669;49.200;9.242;2024-02-26T13:59:46;3.70;;;3.20;;
7255;SDS011;3669;49.200;9.242;2024-02-26T14:02:13;4.15;;;3.85;;
7255;SDS011;3669;49.200;9.242;2024-02-26T14:04:40;3.40;;;3.10;;
7255;SDS011;3669;49.200;9.242;2024-02-26T14:07:07;14.10;;;13.35;;
7255;SDS011;3669;49.200;9.242;2024-02-26T14:09:35;3.30;;;3.10;;
7255;SDS011;3669;49.200;9.242;2024-02-26T14:12:02;3.55;;;3.13;;
7255;SDS011;3669;49.200;9.242;2024-02-26T14:14:29;3.40;;;3.20;;
7255;SDS011;3669;49.200;9.242;2024-02-26T14:16:58;3.63;;;3.33;;
7255;SDS011;3669;49.200;9.242;2024-02-26T14:19:26;3.53;;;3.22;;
7255;SDS011;3669;49.200;9.242;2024-02-26T14:21:53;3.60;;;3.30;;
7255;SDS011;3669;49.200;9.242;2024-02-26T14:24:20;3.53;;;3.22;;
7255;SDS011;3669;49.200;9.242;2024-02-26T14:26:47;3.10;;;2.80;;
7255;SDS011;3669;49.200;9.242;2024-02-26T14:29:14;14.93;;;14.15;;
7255;SDS011;3669;49.200;9.242;2024-02-26T14:31:42;3.80;;;3.50;;
7255;SDS011;3669;49.200;9.242;2024-02-26T14:34:09;3.75;;;3.45;;
7255;SDS011;3669;49.200;9.242;2024-02-26T14:36:36;3.35;;;3.10;;
7255;SDS011;3669;49.200;9.242;2024-02-26T14:39:03;3.70;;;3.40;;
7255;SDS011;3669;49.200;9.242;2024-02-26T14:41:30;3.47;;;3.28;;
7255;SDS011;3669;49.200;9.242;2024-02-26T14:43:57;3.72;;;3.42;;
7255;SDS011;3669;49.200;9.242;2024-02-26T14:46:25;3.50;;;3.30;;
7255;SDS011;3669;49.200;9.242;2024-02-26T14:48:52;3.40;;;3.10;;
7255;SDS011;3669;49.200;9.242;2024-02-26T14:51:19;3.53;;;3.33;;
7255;SDS011;3669;49.200;9.242;2024-02-26T14:53:46;3.03;;;2.83;;
7255;SDS011;3669;49.200;9.242;2024-02-26T14:56:13;3.63;;;3.38;;
7255;SDS011;3669;49.200;9.242;2024-02-26T14:58:40;3.95;;;3.67;;
7255;SDS011;3669;49.200;9.242;2024-02-26T15:01:07;3.65;;;3.35;;
7255;SDS011;3669;49.200;9.242;2024-02-26T15:03:34;14.85;;;14.20;;
7255;SDS011;3669;49.200;9.242;2024-02-26T15:06:01;37.13;;;35.25;;
7255;SDS011;3669;49.200;9.242;2024-02-26T15:08:28;20.52;;;19.58;;
7255;SDS011;3669;49.200;9.242;2024-02-26T15:10:55;30.55;;;28.92;;
7255;SDS011;3669;49.200;9.242;2024-02-26T15:13:22;14.93;;;14.20;;
7255;SDS011;3669;49.200;9.242;2024-02-26T15:15:49;7.45;;;7.00;;
7255;SDS011;3669;49.200;9.242;2024-02-26T15:18:16;3.65;;;3.42;;
7255;SDS011;3669;49.200;9.242;2024-02-26T15:20:43;3.33;;;3.03;;
7255;SDS011;3669;49.200;9.242;2024-02-26T15:23:11;3.10;;;2.90;;
7255;SDS011;3669;49.200;9.242;2024-02-26T15:25:39;3.60;;;3.30;;
7255;SDS011;3669;49.200;9.242;2024-02-26T15:28:07;4.28;;;3.30;;
7255;SDS011;3669;49.200;9.242;2024-02-26T15:30:36;3.42;;;3.22;;
7255;SDS011;3669;49.200;9.242;2024-02-26T15:33:04;3.67;;;3.38;;
7255;SDS011;3669;49.200;9.242;2024-02-26T15:35:31;4.00;;;3.70;;
7255;SDS011;3669;49.200;9.242;2024-02-26T15:37:58;4.15;;;3.25;;
7255;SDS011;3669;49.200;9.242;2024-02-26T15:40:25;4.70;;;3.67;;